Time;durP1;ratioP1;P1;durP2;ratioP2;P2;SDS_P1;SDS_P2;PMS_P1;PMS_P2;Temp;Humidity;BMP_temperature;BMP_pressure;BME280_temperature;BME280_humidity;BME280_pressure;Samples;Min_cycle;Max_cycle;Signal;HPM_P1;HPM_P2
2022/06/15 00:00:52;;;;;;;1.40;0.55;;;;;;;26.96;43.70;100863.88;5037010;28;20048;-36
2022/06/15 00:03:18;;;;;;;2.90;0.52;;;;;;;26.96;43.70;100863.88;5048466;28;20037;-36
2022/06/15 00:05:44;;;;;;;1.67;0.52;;;;;;;26.96;43.61;100867.34;5051101;28;20519;-35
2022/06/15 00:08:10;;;;;;;1.08;0.43;;;;;;;26.96;43.83;100863.88;5050552;28;20440;-37
2022/06/15 00:10:36;;;;;;;1.02;0.60;;;;;;;26.95;43.60;100864.91;5047837;28;20074;-33
2022/06/15 00:13:02;;;;;;;1.42;0.70;;;;;;;26.95;43.67;100870.25;5049438;28;20283;-43
2022/06/15 00:15:28;;;;;;;0.95;0.40;;;;;;;26.93;43.42;100872.38;5049417;28;20033;-41
2022/06/15 00:17:54;;;;;;;1.25;0.40;;;;;;;26.92;43.57;100871.56;5050403;28;20103;-40
2022/06/15 00:20:19;;;;;;;1.30;0.63;;;;;;;26.93;43.66;100880.41;5049272;28;20056;-40
2022/06/15 00:22:45;;;;;;;0.90;0.43;;;;;;;26.92;43.82;100870.75;5050349;28;20370;-36
2022/06/15 00:25:13;;;;;;;2.17;0.50;;;;;;;26.91;43.63;100872.63;5049528;28;20029;-43
2022/06/15 00:27:38;;;;;;;1.75;0.40;;;;;;;26.90;43.68;100870.19;5048869;28;20481;-37
2022/06/15 00:30:05;;;;;;;1.13;0.40;;;;;;;26.91;43.49;100872.63;5048940;28;20055;-36
2022/06/15 00:32:31;;;;;;;1.27;0.40;;;;;;;26.91;43.48;100866.47;5050299;28;20025;-37
2022/06/15 00:34:56;;;;;;;1.58;0.50;;;;;;;26.90;43.30;100862.97;5049084;28;20056;-35
2022/06/15 00:37:22;;;;;;;1.13;0.40;;;;;;;26.90;43.44;100868.31;5047426;28;20040;-36
2022/06/15 00:39:48;;;;;;;1.27;0.40;;;;;;;26.90;43.45;100860.31;5050171;28;20025;-39
2022/06/15 00:42:14;;;;;;;1.08;0.50;;;;;;;26.91;43.43;100861.13;5050293;28;20108;-35
2022/06/15 00:44:42;;;;;;;1.85;0.30;;;;;;;26.91;43.54;100867.28;5048758;28;20021;-38
2022/06/15 00:47:27;;;;;;;1.20;0.30;;;;;;;26.89;43.34;100860.53;5046819;28;20025;-40
2022/06/15 00:50:06;;;;;;;1.88;0.40;;;;;;;26.89;43.46;100863.22;5049164;28;20037;-35
2022/06/15 00:53:00;;;;;;;0.80;0.40;;;;;;;26.90;43.40;100862.16;5049845;28;20037;-39
2022/06/15 00:55:29;;;;;;;0.90;0.45;;;;;;;26.91;43.42;100867.28;5047263;28;20048;-41
2022/06/15 00:57:56;;;;;;;0.90;0.30;;;;;;;26.94;43.62;100860.63;5048165;28;20132;-43
2022/06/15 01:00:23;;;;;;;0.70;0.30;;;;;;;26.95;43.44;100867.56;5047849;28;20043;-42
2022/06/15 01:02:49;;;;;;;1.02;0.40;;;;;;;26.95;43.55;100862.22;5050115;28;20385;-39
2022/06/15 01:05:18;;;;;;;1.27;0.30;;;;;;;26.95;43.47;100857.69;5048714;28;20211;-41
2022/06/15 01:07:53;;;;;;;2.47;0.47;;;;;;;26.95;43.38;100856.88;5049525;28;20029;-40
2022/06/15 01:10:34;;;;;;;1.17;0.40;;;;;;;26.94;43.60;100863.31;5049704;28;20025;-43
2022/06/15 01:13:17;;;;;;;1.17;0.40;;;;;;;26.94;43.57;100863.31;5049497;28;20040;-37
2022/06/15 01:16:00;;;;;;;0.75;0.35;;;;;;;26.94;43.56;100860.63;5047276;28;20550;-43
2022/06/15 01:18:37;;;;;;;2.15;0.45;;;;;;;26.93;43.49;100864.38;5049665;28;20573;-38
2022/06/15 01:21:26;;;;;;;1.27;0.40;;;;;;;26.91;43.59;100845.06;5048622;28;20041;-36
2022/06/15 01:24:33;;;;;;;2.50;0.35;;;;;;;26.91;43.51;100858.44;5049614;28;20044;-42
2022/06/15 01:27:29;;;;;;;1.15;0.40;;;;;;;26.88;43.62;100848.22;5047748;28;20401;-43
2022/06/15 01:30:00;;;;;;;2.58;0.50;;;;;;;26.88;43.52;100856.25;5049481;28;20025;-39
2022/06/15 01:32:46;;;;;;;1.05;0.47;;;;;;;26.90;43.55;100854.16;5048802;28;20440;-39
2022/06/15 01:35:40;;;;;;;1.45;0.45;;;;;;;26.89;43.69;100857.88;5046639;28;20047;-37
2022/06/15 01:38:22;;;;;;;0.50;0.30;;;;;;;26.89;43.57;100849.84;5049030;28;20028;-37
2022/06/15 01:41:07;;;;;;;2.45;0.30;;;;;;;26.88;43.41;100848.22;5048774;28;20401;-40
2022/06/15 01:43:40;;;;;;;1.87;0.40;;;;;;;26.90;43.69;100846.13;5048970;28;20037;-43
2022/06/15 01:46:07;;;;;;;1.48;0.40;;;;;;;26.91;43.41;100850.44;5047454;28;20808;-39
2022/06/15 01:48:35;;;;;;;1.50;0.32;;;;;;;26.91;43.63;100853.09;5049117;28;20427;-38
2022/06/15 01:51:15;;;;;;;0.80;0.35;;;;;;;26.90;43.62;100854.16;5046645;28;20021;-39
2022/06/15 01:53:47;;;;;;;1.27;0.38;;;;;;;26.91;43.63;100853.09;5049291;28;20116;-37
2022/06/15 01:56:21;;;;;;;0.63;0.30;;;;;;;26.91;43.62;100845.88;5047413;28;20075;-39
2022/06/15 01:59:01;;;;;;;1.00;0.30;;;;;;;26.91;43.56;100848.56;5047274;28;20054;-37
2022/06/15 02:01:45;;;;;;;1.75;0.30;;;;;;;26.90;43.48;100852.28;5046447;28;20056;-38
2022/06/15 02:04:23;;;;;;;1.27;0.30;;;;;;;26.90;43.36;100848.81;5029371;28;20108;-37
2022/06/15 02:07:29;;;;;;;1.48;0.30;;;;;;;26.90;43.41;100854.16;5044837;28;20037;-41
2022/06/15 02:10:00;;;;;;;;;;;;;;;26.82;43.52;100843.84;5048734;28;20063;-39
2022/06/15 02:12:46;;;;;;;1.63;0.40;;;;;;;26.84;43.42;100839.06;5047530;28;19921;-42
2022/06/15 02:15:15;;;;;;;0.68;0.30;;;;;;;26.89;43.36;100836.50;5048389;28;20028;-38
2022/06/15 02:17:45;;;;;;;0.77;0.20;;;;;;;26.91;43.23;100837.06;5045519;28;20032;-35
2022/06/15 02:20:21;;;;;;;1.13;0.40;;;;;;;26.91;43.30;100834.38;5045512;28;20428;-37
2022/06/15 02:22:50;;;;;;;1.42;0.40;;;;;;;26.93;43.48;100829.59;5044163;28;20032;-38
2022/06/15 02:25:21;;;;;;;1.27;0.30;;;;;;;26.91;43.35;100829.84;5046001;28;20032;-40
2022/06/15 02:27:50;;;;;;;1.13;0.30;;;;;;;26.92;43.28;100827.97;5045227;28;20025;-39
2022/06/15 02:30:23;;;;;;;0.98;0.40;;;;;;;26.91;43.51;100831.72;5043700;28;20037;-33
2022/06/15 02:32:50;;;;;;;0.98;0.40;;;;;;;26.91;43.44;100835.19;5044220;28;20033;-38
2022/06/15 02:35:17;;;;;;;0.65;0.30;;;;;;;26.92;43.57;100836.00;5044151;28;20504;-38
2022/06/15 02:37:44;;;;;;;0.70;0.40;;;;;;;26.92;43.36;100841.34;5044024;28;20123;-41
2022/06/15 02:40:13;;;;;;;0.93;0.30;;;;;;;26.91;43.55;100839.72;5046240;28;20078;-41
2022/06/15 02:42:45;;;;;;;1.13;0.40;;;;;;;26.91;43.53;100845.88;5046282;28;20033;-39
2022/06/15 02:45:19;;;;;;;0.80;0.30;;;;;;;26.92;43.56;100852.03;5046346;28;20566;-40
2022/06/15 02:47:45;;;;;;;1.70;0.30;;;;;;;26.91;43.55;100851.22;5045611;28;20064;-39
2022/06/15 02:50:13;;;;;;;0.75;0.30;;;;;;;26.92;43.65;100852.03;5045760;28;20029;-42
2022/06/15 02:52:43;;;;;;;0.65;0.35;;;;;;;26.91;43.57;100856.59;5044524;28;20041;-33
2022/06/15 02:55:11;;;;;;;0.77;0.30;;;;;;;26.92;43.73;100855.53;5045777;28;20033;-43
2022/06/15 02:58:08;;;;;;;0.47;0.20;;;;;;;26.90;43.51;100854.16;5048139;28;20036;-37
2022/06/15 03:00:36;;;;;;;1.08;0.40;;;;;;;26.90;43.63;100849.63;5046539;28;20052;-44
2022/06/15 03:03:02;;;;;;;0.70;0.40;;;;;;;26.89;43.58;100847.19;5046098;28;20254;-41
2022/06/15 03:05:27;;;;;;;2.72;0.38;;;;;;;26.90;43.51;100843.47;5047781;28;20528;-37
2022/06/15 03:07:53;;;;;;;1.00;0.30;;;;;;;26.90;43.56;100844.28;5046130;28;20520;-39
2022/06/15 03:10:19;;;;;;;1.15;0.47;;;;;;;26.89;43.72;100842.66;5047997;28;20021;-43
2022/06/15 03:12:44;;;;;;;1.02;0.30;;;;;;;26.90;43.73;100851.47;5047802;28;20571;-41
2022/06/15 03:15:10;;;;;;;1.17;0.30;;;;;;;26.91;43.43;100848.56;5048062;28;20025;-37
2022/06/15 03:17:37;;;;;;;0.70;0.30;;;;;;;26.92;43.77;100846.69;5046819;28;20086;-42
2022/06/15 03:20:03;;;;;;;1.88;0.30;;;;;;;26.92;43.51;100857.38;5044320;28;20037;-37
2022/06/15 03:22:32;;;;;;;1.55;0.30;;;;;;;26.93;43.73;100851.00;5051804;28;20369;-41
2022/06/15 03:24:57;;;;;;;1.27;0.40;;;;;;;26.92;43.56;100852.84;5049253;28;20033;-39
2022/06/15 03:27:23;;;;;;;0.60;0.30;;;;;;;26.93;43.45;100864.38;5049402;28;20424;-35
2022/06/15 03:29:50;;;;;;;0.50;0.30;;;;;;;26.93;43.38;100853.66;5050148;28;20071;-42
2022/06/15 03:32:17;;;;;;;0.80;0.30;;;;;;;26.93;43.53;100854.47;5051177;28;20592;-41
2022/06/15 03:34:43;;;;;;;1.00;0.30;;;;;;;26.92;43.38;100855.53;5047837;28;20093;-35
2022/06/15 03:39:43;;;;;;;1.20;0.20;;;;;;;26.91;43.53;100851.22;5100856;22;20109;-72
2022/06/15 03:42:22;;;;;;;0.70;0.30;;;;;;;26.90;43.59;100848.81;4992034;28;20030;-73
2022/06/15 03:44:48;;;;;;;0.70;0.30;;;;;;;26.91;43.65;100863.78;4991705;28;20548;-73
2022/06/15 03:47:17;;;;;;;1.15;0.40;;;;;;;26.91;43.64;100858.44;4991967;28;20026;-72
2022/06/15 03:49:48;;;;;;;0.65;0.30;;;;;;;26.90;43.47;100857.63;4991838;28;20869;-72
2022/06/15 03:52:14;;;;;;;1.58;0.20;;;;;;;26.92;43.49;100857.38;4991855;28;20487;-71
2022/06/15 03:54:40;;;;;;;1.25;0.47;;;;;;;26.91;43.37;100855.78;4991753;28;20030;-72
2022/06/15 03:57:06;;;;;;;0.47;0.25;;;;;;;26.92;43.40;100857.38;4991381;28;20030;-73
2022/06/15 03:59:32;;;;;;;0.60;0.30;;;;;;;26.91;43.47;100861.13;4991537;28;20481;-70
2022/06/15 04:01:58;;;;;;;0.50;0.30;;;;;;;26.90;43.54;100860.31;4991576;28;20030;-72
2022/06/15 04:04:23;;;;;;;1.27;0.30;;;;;;;26.89;43.78;100858.69;4991884;28;20046;-71
2022/06/15 04:06:49;;;;;;;0.70;0.30;;;;;;;26.88;43.73;100856.25;4991384;28;20030;-71
2022/06/15 04:09:20;;;;;;;1.33;0.40;;;;;;;26.88;43.86;100856.25;4991482;28;20030;-70
2022/06/15 04:11:59;;;;;;;1.48;0.30;;;;;;;26.88;43.83;100859.75;4991277;28;20044;-71
2022/06/15 04:14:28;;;;;;;0.85;0.20;;;;;;;26.88;43.66;100856.25;4990974;28;20077;-72
2022/06/15 04:16:53;;;;;;;1.30;0.30;;;;;;;26.89;43.52;100863.22;4991132;28;20600;-72
2022/06/15 04:19:31;;;;;;;0.50;0.30;;;;;;;26.87;43.50;100860.78;4991007;28;20026;-71
2022/06/15 04:21:57;;;;;;;0.85;0.30;;;;;;;26.89;43.55;100857.88;4991032;28;20034;-72
2022/06/15 04:24:25;;;;;;;0.95;0.30;;;;;;;26.90;43.65;100859.50;4991038;28;20030;-71
2022/06/15 04:26:51;;;;;;;0.70;0.22;;;;;;;26.90;43.69;100859.50;4990873;28;20028;-71
2022/06/15 04:29:18;;;;;;;1.20;0.30;;;;;;;26.91;43.41;100872.63;4990644;28;20499;-71
2022/06/15 04:31:43;;;;;;;1.15;0.30;;;;;;;26.92;43.51;100868.09;4990749;28;20446;-72
2022/06/15 04:34:10;;;;;;;1.67;0.40;;;;;;;26.93;43.29;100864.38;4990929;28;20084;-72
2022/06/15 04:36:37;;;;;;;0.45;0.20;;;;;;;26.94;43.47;100869.44;4991154;28;20335;-72
2022/06/15 04:39:04;;;;;;;1.73;0.40;;;;;;;26.93;43.51;100872.38;4990361;28;20053;-71
2022/06/15 04:41:30;;;;;;;0.95;0.20;;;;;;;26.92;43.32;100873.44;4990463;28;20036;-71
2022/06/15 04:43:55;;;;;;;1.67;0.30;;;;;;;26.92;43.44;100870.75;4990589;28;20101;-73
2022/06/15 04:46:21;;;;;;;1.17;0.32;;;;;;;26.91;43.47;100872.63;4990695;28;20033;-71
2022/06/15 04:48:47;;;;;;;0.80;0.30;;;;;;;26.91;43.48;100871.81;4990998;28;20041;-72
2022/06/15 04:51:25;;;;;;;0.90;0.30;;;;;;;26.89;43.46;100879.25;4990618;28;20136;-74
2022/06/15 04:53:52;;;;;;;0.98;0.30;;;;;;;26.89;43.64;100873.91;4990582;28;20360;-72
2022/06/15 04:56:18;;;;;;;2.83;0.40;;;;;;;26.89;43.66;100884.59;4990622;28;20027;-74
2022/06/15 04:58:43;;;;;;;1.60;0.30;;;;;;;26.88;43.49;100877.63;4990680;28;20451;-73
2022/06/15 05:01:10;;;;;;;2.15;0.30;;;;;;;26.87;43.54;100871.47;4990514;28;20030;-73
2022/06/15 05:03:37;;;;;;;1.02;0.30;;;;;;;26.86;43.60;100879.75;4990362;28;20304;-74
2022/06/15 05:06:12;;;;;;;1.23;0.30;;;;;;;26.86;43.57;100874.41;4990246;28;20022;-73
2022/06/15 05:08:38;;;;;;;1.17;0.43;;;;;;;26.83;43.79;100867.66;4990320;28;20030;-73
2022/06/15 05:11:03;;;;;;;3.42;0.52;;;;;;;26.84;43.62;100877.31;4990294;28;20049;-70
2022/06/15 05:13:29;;;;;;;1.35;0.40;;;;;;;26.83;43.39;100870.34;4990252;28;20451;-73
2022/06/15 05:15:55;;;;;;;2.10;0.40;;;;;;;26.83;43.30;100877.56;4990107;28;20467;-71
2022/06/15 05:18:21;;;;;;;2.90;0.47;;;;;;;26.82;43.21;100876.75;4989821;28;20031;-73
2022/06/15 05:20:47;;;;;;;4.20;0.40;;;;;;;26.83;43.28;100874.88;4989958;28;20023;-73
2022/06/15 05:23:14;;;;;;;0.93;0.30;;;;;;;26.83;43.30;100874.88;4989811;28;20390;-73
2022/06/15 05:25:39;;;;;;;0.80;0.30;;;;;;;26.84;43.16;100877.31;4990113;28;20379;-72
2022/06/15 05:28:05;;;;;;;1.42;0.40;;;;;;;26.86;43.21;100877.06;4990416;28;20023;-70
2022/06/15 05:30:31;;;;;;;0.95;0.30;;;;;;;26.86;43.22;100874.41;4989819;28;20037;-74
2022/06/15 05:32:56;;;;;;;0.90;0.30;;;;;;;26.86;43.17;100874.41;4989936;28;20030;-70
2022/06/15 05:35:22;;;;;;;0.88;0.30;;;;;;;26.86;43.16;100872.53;4989771;28;20109;-70
2022/06/15 05:37:47;;;;;;;2.72;0.50;;;;;;;26.87;43.09;100870.69;4989603;28;20394;-71
2022/06/15 05:40:13;;;;;;;1.48;0.38;;;;;;;26.88;42.90;100877.63;4989022;28;20077;-72
2022/06/15 05:42:38;;;;;;;2.38;0.32;;;;;;;26.89;42.65;100872.06;4989855;28;20061;-72
2022/06/15 05:45:04;;;;;;;1.52;0.35;;;;;;;26.88;42.86;100859.75;4989659;28;20034;-72
2022/06/15 05:47:30;;;;;;;1.52;0.30;;;;;;;26.88;42.65;100866.94;4989915;28;20033;-73
2022/06/15 05:49:55;;;;;;;2.03;0.30;;;;;;;26.87;42.74;100870.69;4989530;28;20038;-72
2022/06/15 05:52:21;;;;;;;1.27;0.40;;;;;;;26.86;42.70;100858.34;4989350;28;20019;-71
2022/06/15 05:54:46;;;;;;;2.25;0.40;;;;;;;26.85;42.88;100851.38;4989191;28;20072;-73
2022/06/15 05:57:21;;;;;;;1.27;0.40;;;;;;;26.85;42.71;100854.88;4989972;28;20056;-72
2022/06/15 05:59:47;;;;;;;2.42;0.40;;;;;;;26.83;42.49;100853.50;4989368;28;20038;-70
2022/06/15 06:02:15;;;;;;;1.45;0.38;;;;;;;26.82;42.73;100851.88;4989307;28;20045;-71
2022/06/15 06:04:41;;;;;;;1.58;0.30;;;;;;;26.82;42.62;100859.91;4988066;28;20039;-71
2022/06/15 06:07:08;;;;;;;1.63;0.43;;;;;;;26.82;42.78;100859.91;4987766;28;20043;-72
2022/06/15 06:09:34;;;;;;;4.22;0.60;;;;;;;26.81;42.67;100852.94;4989309;28;20026;-70
2022/06/15 06:11:59;;;;;;;1.05;0.30;;;;;;;26.81;42.69;100860.94;4987223;28;20393;-71
2022/06/15 06:14:25;;;;;;;1.17;0.50;;;;;;;26.80;42.85;100854.78;4988551;28;20030;-72
2022/06/15 06:16:50;;;;;;;1.77;0.50;;;;;;;26.78;42.64;100863.03;4988916;28;20030;-70
2022/06/15 06:19:16;;;;;;;1.05;0.40;;;;;;;26.80;42.71;100859.31;4985479;28;20391;-72
2022/06/15 06:21:45;;;;;;;1.20;0.50;;;;;;;26.79;42.71;100866.53;4988388;28;20038;-72
2022/06/15 06:24:11;;;;;;;1.10;0.47;;;;;;;26.78;42.82;100863.03;4986142;28;20061;-72
2022/06/15 06:26:37;;;;;;;2.05;0.40;;;;;;;26.80;42.76;100862.81;4985080;28;20030;-71
2022/06/15 06:29:04;;;;;;;0.60;0.30;;;;;;;26.81;42.75;100864.44;4985288;28;20070;-71
2022/06/15 06:31:30;;;;;;;2.17;0.60;;;;;;;26.83;43.07;100864.19;4983148;28;20054;-72
2022/06/15 06:33:56;;;;;;;3.85;0.68;;;;;;;26.84;43.16;100860.47;4984262;28;20048;-71
2022/06/15 06:36:30;;;;;;;4.28;0.60;;;;;;;26.82;43.08;100862.56;4987239;28;20130;-73
2022/06/15 06:38:57;;;;;;;3.55;0.35;;;;;;;26.82;43.40;100860.69;4986868;28;20097;-73
2022/06/15 06:41:25;;;;;;;5.28;0.85;;;;;;;26.91;44.26;100861.13;4986921;28;20034;-73
2022/06/15 06:43:51;;;;;;;18.83;12.85;;;;;;;26.99;44.57;100864.19;4986709;28;20105;-73
2022/06/15 06:46:17;;;;;;;17.52;7.82;;;;;;;27.01;44.13;100862.09;4988640;28;20026;-73
2022/06/15 06:48:42;;;;;;;17.38;4.78;;;;;;;27.03;45.37;100864.53;4988275;28;20081;-70
2022/06/15 06:51:08;;;;;;;9.85;2.70;;;;;;;27.05;45.35;100862.41;4988749;28;20185;-72
2022/06/15 06:53:35;;;;;;;5.72;1.42;;;;;;;27.04;44.49;100866.16;4991508;28;20035;-71
2022/06/15 06:56:03;;;;;;;6.53;1.33;;;;;;;27.02;44.35;100869.06;4992407;28;20030;-71
2022/06/15 06:58:29;;;;;;;11.38;1.48;;;;;;;27.02;44.20;100862.91;4992316;28;20076;-71
2022/06/15 07:00:55;;;;;;;5.55;0.88;;;;;;;26.99;44.02;100866.06;4992822;28;20034;-71
2022/06/15 07:03:20;;;;;;;4.90;1.17;;;;;;;26.96;43.94;100869.22;4992325;28;20469;-69
2022/06/15 07:05:46;;;;;;;8.93;1.00;;;;;;;26.94;43.95;100871.31;4992441;28;20438;-73
2022/06/15 07:08:12;;;;;;;12.43;1.00;;;;;;;26.93;43.87;100864.38;4992390;28;20026;-72
2022/06/15 07:10:39;;;;;;;8.20;0.65;;;;;;;26.91;43.57;100866.47;4991999;28;20143;-70
2022/06/15 07:13:04;;;;;;;12.63;1.05;;;;;;;26.86;43.63;100872.53;4992317;28;20110;-72
2022/06/15 07:15:30;;;;;;;2.88;0.57;;;;;;;26.72;43.76;100872.03;4990825;28;20385;-73
2022/06/15 07:17:59;;;;;;;6.63;0.93;;;;;;;26.69;43.68;100869.84;4991989;28;20034;-73
2022/06/15 07:20:26;;;;;;;12.57;1.00;;;;;;;26.62;43.42;100879.06;4992059;28;20023;-73
2022/06/15 07:22:51;;;;;;;4.85;0.70;;;;;;;26.56;43.48;100877.34;4991925;28;20026;-73
2022/06/15 07:25:17;;;;;;;14.07;1.05;;;;;;;26.60;43.59;100878.47;4989004;28;20049;-73
2022/06/15 07:27:44;;;;;;;1.60;0.40;;;;;;;26.63;43.59;100875.31;4989756;28;20038;-72
2022/06/15 07:30:15;;;;;;;4.32;0.50;;;;;;;26.63;43.87;100869.97;4990623;28;20460;-70
2022/06/15 07:32:42;;;;;;;6.55;0.50;;;;;;;26.65;43.92;100870.56;4990084;28;20540;-71
2022/06/15 07:35:16;;;;;;;6.90;1.13;;;;;;;26.68;43.89;100873.56;4988244;28;20450;-73
2022/06/15 07:37:41;;;;;;;5.17;0.67;;;;;;;26.70;43.70;100870.66;4991976;28;20026;-73
2022/06/15 07:40:07;;;;;;;5.78;0.60;;;;;;;26.69;43.54;100869.84;4991446;28;20460;-70
2022/06/15 07:42:33;;;;;;;6.50;0.70;;;;;;;26.70;43.40;100868.78;4990432;28;20034;-70
2022/06/15 07:44:58;;;;;;;4.35;0.55;;;;;;;26.73;43.41;100867.50;4991147;28;20034;-73
2022/06/15 07:50:08;;;;;;;2.10;0.68;;;;;;;26.74;43.96;100863.78;4991563;28;20057;-74
2022/06/15 07:52:40;;;;;;;4.45;0.75;;;;;;;26.76;43.84;100864.34;4989501;28;20044;-71
2022/06/15 07:55:09;;;;;;;8.18;0.93;;;;;;;26.76;43.37;100861.66;4971827;28;20031;-70
2022/06/15 07:57:35;;;;;;;6.00;0.65;;;;;;;26.75;43.67;100866.19;4973815;28;20149;-71
2022/06/15 08:00:01;;;;;;;8.15;0.77;;;;;;;26.74;43.50;100866.44;4991522;28;20423;-73
2022/06/15 08:02:27;;;;;;;3.55;0.52;;;;;;;26.69;43.52;100858.34;4991187;28;20110;-71
2022/06/15 08:04:52;;;;;;;6.32;0.60;;;;;;;26.69;43.56;100861.00;4989677;28;20038;-71
2022/06/15 08:07:18;;;;;;;2.20;0.47;;;;;;;26.69;43.33;100861.81;4991677;28;20040;-72
2022/06/15 08:09:44;;;;;;;3.05;0.90;;;;;;;26.71;43.49;100856.22;4991124;28;20129;-72
2022/06/15 08:12:12;;;;;;;3.78;0.50;;;;;;;26.72;43.24;100864.00;4991082;28;20027;-74
2022/06/15 08:14:47;;;;;;;7.00;0.95;;;;;;;26.72;43.41;100861.34;4989104;28;20064;-70
2022/06/15 08:17:26;;;;;;;3.83;0.73;;;;;;;26.71;43.47;100856.22;4991331;28;20030;-70
2022/06/15 08:19:56;;;;;;;5.82;0.80;;;;;;;26.70;43.34;100860.78;4991326;28;20026;-73
2022/06/15 08:22:22;;;;;;;3.63;0.70;;;;;;;26.70;43.08;100852.75;4990774;28;20034;-71
2022/06/15 08:24:48;;;;;;;4.60;0.50;;;;;;;26.71;42.92;100851.69;4989317;28;20041;-71
2022/06/15 08:27:17;;;;;;;1.98;0.60;;;;;;;26.72;42.89;100850.66;4989038;28;20112;-72
2022/06/15 08:29:44;;;;;;;3.92;0.50;;;;;;;26.72;42.69;100847.97;4989018;28;20045;-72
2022/06/15 08:32:10;;;;;;;4.03;0.70;;;;;;;26.71;42.01;100851.69;4990628;28;20363;-72
2022/06/15 08:34:37;;;;;;;3.83;0.57;;;;;;;26.72;42.11;100847.97;4988630;28;20045;-70
2022/06/15 08:37:09;;;;;;;3.13;0.52;;;;;;;26.73;42.05;100843.44;4990409;28;20026;-73
2022/06/15 08:39:35;;;;;;;4.82;0.50;;;;;;;26.74;41.96;100840.53;4990407;28;20058;-70
2022/06/15 08:42:12;;;;;;;1.95;0.52;;;;;;;26.72;41.76;100847.97;4989356;28;20030;-73
2022/06/15 08:44:51;;;;;;;3.50;0.73;;;;;;;26.72;41.58;100842.63;4984155;28;20467;-72
2022/06/15 08:47:45;;;;;;;1.40;0.40;;;;;;;26.70;41.75;100839.38;4990317;28;20084;-72
2022/06/15 08:50:33;;;;;;;2.90;0.60;;;;;;;26.73;41.92;100846.91;4986752;28;20045;-71
2022/06/15 08:53:32;;;;;;;3.15;0.60;;;;;;;26.72;41.96;100852.50;4988615;28;20114;-72
2022/06/15 08:56:04;;;;;;;1.85;0.40;;;;;;;26.74;42.01;100853.06;4976637;28;20042;-72
2022/06/15 08:58:47;;;;;;;1.70;0.40;;;;;;;26.74;41.90;100855.75;4988579;28;20085;-69
2022/06/15 09:01:42;;;;;;;1.75;0.52;;;;;;;26.74;42.14;100851.22;4990519;28;20034;-72
2022/06/15 09:04:34;;;;;;;1.70;0.50;;;;;;;26.71;41.84;100851.69;4987943;28;20046;-72
2022/06/15 09:07:36;;;;;;;2.08;0.40;;;;;;;26.72;42.11;100852.50;4990492;28;20458;-71
2022/06/15 09:10:20;;;;;;;2.88;0.57;;;;;;;26.73;42.07;100848.78;4990124;28;20095;-69
2022/06/15 09:12:59;;;;;;;1.90;0.50;;;;;;;26.75;42.00;100854.69;4990208;28;20074;-71
2022/06/15 09:15:27;;;;;;;1.50;0.40;;;;;;;26.77;41.85;100849.94;4987057;28;20623;-74
2022/06/15 09:17:56;;;;;;;2.53;0.50;;;;;;;26.78;41.59;100844.34;4989820;28;20034;-70
2022/06/15 09:20:26;;;;;;;4.82;0.70;;;;;;;26.79;41.95;100847.81;4989903;28;20022;-70
2022/06/15 09:23:03;;;;;;;1.38;0.60;;;;;;;26.78;41.86;100839.00;4989750;28;20078;-70
2022/06/15 09:25:44;;;;;;;2.92;0.63;;;;;;;26.77;41.34;100845.38;4987907;28;20042;-71
2022/06/15 09:28:20;;;;;;;0.88;0.40;;;;;;;26.77;41.53;100840.03;4988643;28;20100;-72
2022/06/15 09:30:46;;;;;;;2.08;0.73;;;;;;;26.78;41.12;100838.19;4989172;28;20043;-72
2022/06/15 09:33:19;;;;;;;4.47;0.40;;;;;;;26.78;41.42;100836.31;4989325;28;20030;-73
2022/06/15 09:35:51;;;;;;;2.85;0.40;;;;;;;26.80;41.41;100844.09;4987058;28;20464;-73
2022/06/15 09:38:17;;;;;;;1.90;0.40;;;;;;;26.81;40.92;100839.56;4987322;28;20086;-71
2022/06/15 09:40:53;;;;;;;6.32;0.50;;;;;;;26.81;41.18;100842.22;4989912;28;20057;-74
2022/06/15 09:43:36;;;;;;;2.88;0.40;;;;;;;26.79;40.86;100834.47;4987459;28;20042;-70
2022/06/15 09:46:27;;;;;;;1.65;0.50;;;;;;;26.81;41.52;100837.69;4989319;28;20030;-70
2022/06/15 09:49:23;;;;;;;1.95;0.40;;;;;;;26.80;41.65;100829.91;4985434;28;20031;-71
2022/06/15 09:52:02;;;;;;;2.25;0.50;;;;;;;26.78;41.51;100825.63;4989003;28;20030;-72
2022/06/15 09:54:27;;;;;;;2.88;0.47;;;;;;;26.82;41.40;100820.59;4969902;28;20038;-74
2022/06/15 09:56:55;;;;;;;5.18;0.88;;;;;;;26.84;41.35;100833.72;4969776;28;20077;-73
2022/06/15 09:59:21;;;;;;;4.10;0.32;;;;;;;26.86;41.44;100826.28;4980488;28;20076;-73
2022/06/15 10:01:48;;;;;;;2.50;0.63;;;;;;;26.87;41.36;100830.56;4989309;28;20034;-72
2022/06/15 10:04:18;;;;;;;3.53;0.50;;;;;;;26.87;41.30;100828.72;4987051;28;20107;-72
2022/06/15 10:06:56;;;;;;;2.47;0.40;;;;;;;26.88;40.94;100827.66;4980740;28;20113;-71
2022/06/15 10:09:27;;;;;;;1.80;0.45;;;;;;;26.88;41.01;100818.81;4987208;28;20117;-71
2022/06/15 10:14:43;;;;;;;1.35;0.40;;;;;;;26.88;40.72;100824.19;4988080;28;20513;-71
2022/06/15 10:17:24;;;;;;;0.80;0.30;;;;;;;26.86;40.38;100826.28;4988649;28;20034;-72
2022/06/15 10:19:51;;;;;;;3.13;0.40;;;;;;;26.88;40.68;100821.50;4988789;28;20030;-71
2022/06/15 10:22:31;;;;;;;0.70;0.30;;;;;;;26.88;40.49;100808.94;4986780;28;20026;-72
2022/06/15 10:24:59;;;;;;;0.88;0.30;;;;;;;26.90;40.22;100803.34;4988841;28;20034;-71
2022/06/15 10:27:24;;;;;;;1.60;0.30;;;;;;;26.89;40.15;100799.06;4988325;28;20049;-73
2022/06/15 10:30:18;;;;;;;2.83;0.40;;;;;;;26.86;40.44;100808.38;4987880;28;20038;-71
2022/06/15 10:32:57;;;;;;;1.60;0.30;;;;;;;26.87;40.47;100801.16;4985026;28;20051;-70
2022/06/15 10:35:24;;;;;;;1.98;0.38;;;;;;;26.90;40.33;100795.34;4988745;28;20217;-70
2022/06/15 10:37:54;;;;;;;5.90;0.40;;;;;;;26.92;40.50;100794.03;4988537;28;20533;-70
2022/06/15 10:40:25;;;;;;;0.60;0.30;;;;;;;26.94;40.28;100791.13;4988775;28;20482;-71
2022/06/15 10:42:56;;;;;;;2.78;0.47;;;;;;;26.97;40.69;100795.97;4986575;28;20018;-71
2022/06/15 10:45:36;;;;;;;1.00;0.30;;;;;;;26.96;40.59;100787.16;4986969;28;20038;-71
2022/06/15 10:48:12;;;;;;;0.82;0.30;;;;;;;26.97;40.86;100791.44;4988474;28;20031;-72
2022/06/15 10:50:55;;;;;;;;;;;;;;;26.90;40.63;100779.28;4988763;28;20486;-72
2022/06/15 10:53:35;;;;;;;1.30;0.40;;;;;;;26.93;40.61;100781.47;4987532;28;19937;-72
2022/06/15 11:02:07;;;;;;;2.55;0.40;;;;;;;26.98;40.83;100776.22;4984258;28;20104;-71
2022/06/15 11:04:36;;;;;;;1.13;0.50;;;;;;;26.99;41.00;100772.47;4968985;28;20542;-71
2022/06/15 11:07:30;;;;;;;3.85;0.63;;;;;;;27.01;42.10;100771.19;4976615;28;20110;-71
2022/06/15 11:09:56;;;;;;;1.55;0.60;;;;;;;27.09;42.14;100773.44;4977536;28;20030;-73
2022/06/15 11:12:32;;;;;;;2.05;0.40;;;;;;;27.12;42.19;100772.16;4987339;28;20117;-72
2022/06/15 11:15:06;;;;;;;2.67;0.50;;;;;;;27.14;42.40;100774.56;4986524;28;20113;-71
2022/06/15 11:20:35;;;;;;;5.05;0.47;;;;;;;27.26;42.36;100768.06;4985364;28;20450;-73
2022/06/15 11:23:10;;;;;;;4.93;0.95;;;;;;;27.33;42.07;100773.25;4987610;28;20026;-72
2022/06/15 11:29:44;;;;;;;4.22;0.82;;;;;;;27.51;46.93;100767.56;4976829;28;20061;-71
2022/06/15 11:32:30;;;;;;;2.55;0.60;;;;;;;27.94;46.35;100774.78;4966083;28;20074;-71
2022/06/15 11:35:13;;;;;;;1.73;0.43;;;;;;;28.17;46.43;100779.03;4987960;28;20475;-71
2022/06/15 11:37:51;;;;;;;1.40;0.50;;;;;;;28.20;47.25;100777.72;4985449;28;20042;-71
2022/06/15 11:40:41;;;;;;;3.38;0.60;;;;;;;28.39;47.17;100776.31;4988342;28;20566;-72
2022/06/15 11:43:15;;;;;;;1.23;0.30;;;;;;;28.28;43.42;100766.59;4991405;28;20130;-73
2022/06/15 11:46:02;;;;;;;2.35;0.47;;;;;;;28.04;41.63;100766.03;4986521;28;20117;-74
2022/06/15 11:48:33;;;;;;;2.40;0.47;;;;;;;27.90;41.01;100768.31;4988481;28;20486;-72
2022/06/15 11:51:13;;;;;;;1.90;0.40;;;;;;;27.78;40.67;100764.19;4990189;28;20497;-71
2022/06/15 11:54:06;;;;;;;2.00;0.40;;;;;;;27.68;40.44;100764.88;4990428;28;20387;-71
2022/06/15 11:56:57;;;;;;;4.97;1.08;;;;;;;27.61;40.48;100767.72;4991628;28;20053;-74
2022/06/15 11:59:31;;;;;;;3.92;0.38;;;;;;;27.59;40.25;100769.03;4991426;28;20109;-72
2022/06/15 12:02:09;;;;;;;1.48;0.30;;;;;;;27.58;40.14;100759.34;4989959;28;20037;-73
2022/06/15 12:05:06;;;;;;;1.83;0.40;;;;;;;27.55;40.16;100751.81;4991197;28;20121;-74